Time;durP1;ratioP1;P1;durP2;ratioP2;P2;SDS_P1;SDS_P2;PMS_P1;PMS_P2;Temp;Humidity;BMP_temperature;BMP_pressure;BME280_temperature;BME280_humidity;BME280_pressure;Samples;Min_cycle;Max_cycle;Signal;HPM_P1;HPM_P2
2021/05/24 00:00:12;;;;;;;1.05;0.50;;;13.40;65.20;;;;;;2065180;28;20019;-83
2021/05/24 00:01:13;;;;;;;1.33;0.40;;;13.40;65.20;;;;;;2065883;28;20559;-84
2021/05/24 00:02:15;;;;;;;1.33;0.40;;;13.40;65.20;;;;;;2072876;28;20060;-84
2021/05/24 00:03:17;;;;;;;0.65;0.43;;;13.40;65.20;;;;;;2081531;28;20120;-84
2021/05/24 00:04:18;;;;;;;1.17;0.40;;;13.40;65.20;;;;;;2073254;28;20412;-84
2021/05/24 00:05:21;;;;;;;1.17;0.40;;;13.40;65.20;;;;;;2064181;28;20058;-84
2021/05/24 00:06:22;;;;;;;1.50;0.40;;;13.40;65.30;;;;;;2073633;28;20026;-84
2021/05/24 00:07:23;;;;;;;0.65;0.30;;;13.40;65.20;;;;;;2073278;28;20091;-83
2021/05/24 00:08:23;;;;;;;1.02;0.40;;;13.40;65.20;;;;;;2057025;28;20034;-83
2021/05/24 00:09:24;;;;;;;0.98;0.45;;;13.40;65.20;;;;;;2057048;28;20038;-83
2021/05/24 00:10:28;;;;;;;1.15;0.40;;;13.40;65.30;;;;;;2056144;28;20498;-84
2021/05/24 00:11:28;;;;;;;0.32;0.25;;;13.40;65.40;;;;;;2064757;28;20543;-84
2021/05/24 00:12:29;;;;;;;1.30;0.40;;;13.40;65.30;;;;;;2081270;28;20083;-84
2021/05/24 00:13:30;;;;;;;0.93;0.40;;;13.40;65.40;;;;;;2072893;28;20029;-84
2021/05/24 00:14:33;;;;;;;1.60;0.50;;;13.40;65.40;;;;;;2056891;28;20074;-83
2021/05/24 00:15:39;;;;;;;1.13;0.30;;;13.40;65.50;;;;;;2065301;28;20537;-84
2021/05/24 00:16:40;;;;;;;0.65;0.40;;;13.40;65.50;;;;;;2073586;28;20022;-84
2021/05/24 00:17:40;;;;;;;2.38;0.50;;;13.40;65.50;;;;;;2064965;28;20034;-84
2021/05/24 00:18:43;;;;;;;1.30;0.40;;;13.40;65.50;;;;;;2057088;28;20484;-84
2021/05/24 00:19:43;;;;;;;0.65;0.30;;;13.40;65.50;;;;;;2064616;28;20026;-84
2021/05/24 00:20:51;;;;;;;1.92;0.40;;;13.40;65.50;;;;;;2057181;28;20114;-84
2021/05/24 00:21:52;;;;;;;0.80;0.40;;;13.40;65.60;;;;;;2066901;28;20034;-84
2021/05/24 00:22:53;;;;;;;0.98;0.35;;;13.40;65.60;;;;;;2073140;28;20026;-84
2021/05/24 00:23:53;;;;;;;0.65;0.30;;;13.40;65.60;;;;;;2056927;28;20027;-83
2021/05/24 00:24:55;;;;;;;1.17;0.32;;;13.40;65.60;;;;;;2057098;28;20074;-84
2021/05/24 00:25:56;;;;;;;1.55;0.30;;;13.40;65.70;;;;;;2065229;28;20121;-84
2021/05/24 00:26:57;;;;;;;2.20;0.35;;;13.40;65.60;;;;;;2072572;28;20472;-83
2021/05/24 00:27:58;;;;;;;0.65;0.40;;;13.40;65.50;;;;;;2064988;28;20506;-84
2021/05/24 00:29:00;;;;;;;1.05;0.30;;;13.40;65.60;;;;;;2056351;28;20033;-83
2021/05/24 00:30:02;;;;;;;0.98;0.30;;;13.40;65.60;;;;;;2073161;28;20408;-84
2021/05/24 00:31:03;;;;;;;0.80;0.32;;;13.40;65.70;;;;;;2060518;28;20109;-84
2021/05/24 00:32:04;;;;;;;0.60;0.40;;;13.40;65.60;;;;;;2072960;28;20053;-84
2021/05/24 00:33:05;;;;;;;1.05;0.30;;;13.40;65.60;;;;;;2064977;28;20400;-83
2021/05/24 00:34:06;;;;;;;0.82;0.30;;;13.40;65.60;;;;;;2057072;28;20034;-84
2021/05/24 00:35:08;;;;;;;1.27;0.45;;;13.40;65.60;;;;;;2081318;28;20606;-84
2021/05/24 00:36:08;;;;;;;0.90;0.47;;;13.40;65.60;;;;;;2080776;28;20065;-84
2021/05/24 00:37:09;;;;;;;1.40;0.50;;;13.50;65.70;;;;;;2072909;28;20475;-84
2021/05/24 00:38:11;;;;;;;1.40;0.40;;;13.50;65.70;;;;;;2065011;28;20497;-84
2021/05/24 00:39:13;;;;;;;1.02;0.40;;;13.40;65.60;;;;;;2065140;28;20022;-83
2021/05/24 00:40:14;;;;;;;0.82;0.30;;;13.40;65.60;;;;;;2072835;28;20034;-84
2021/05/24 00:41:14;;;;;;;1.05;0.30;;;13.50;65.70;;;;;;2072673;28;20029;-84
2021/05/24 00:42:15;;;;;;;1.10;0.30;;;13.50;65.70;;;;;;2072760;28;20121;-84
2021/05/24 00:43:16;;;;;;;1.58;0.38;;;13.40;65.60;;;;;;2064787;28;20393;-84
2021/05/24 00:44:17;;;;;;;1.60;0.40;;;13.50;65.70;;;;;;2072887;28;20072;-84
2021/05/24 00:45:18;;;;;;;1.10;0.32;;;13.40;65.70;;;;;;2073128;28;20115;-84
2021/05/24 00:46:19;;;;;;;1.67;0.50;;;13.50;65.80;;;;;;2064335;28;20125;-83
2021/05/24 00:47:20;;;;;;;1.15;0.30;;;13.50;65.80;;;;;;2072855;28;20042;-84
2021/05/24 00:48:20;;;;;;;1.15;0.40;;;13.40;65.80;;;;;;2064644;28;20035;-84
2021/05/24 00:49:26;;;;;;;2.33;0.32;;;13.50;65.80;;;;;;2064910;28;20029;-83
2021/05/24 00:50:27;;;;;;;0.88;0.30;;;13.50;65.80;;;;;;2067578;28;20022;-83
2021/05/24 00:51:27;;;;;;;1.60;0.43;;;13.50;65.80;;;;;;2074646;28;20022;-83
2021/05/24 00:52:28;;;;;;;0.68;0.40;;;13.50;65.80;;;;;;2075660;28;20122;-84
2021/05/24 00:53:30;;;;;;;1.27;0.30;;;13.50;65.80;;;;;;2075272;28;20103;-84
2021/05/24 00:54:31;;;;;;;1.77;0.52;;;13.50;65.50;;;;;;2090681;28;20018;-83
2021/05/24 00:55:31;;;;;;;0.63;0.30;;;13.50;65.80;;;;;;2082814;28;20104;-83
2021/05/24 00:56:32;;;;;;;0.50;0.32;;;13.50;65.70;;;;;;2082555;28;20049;-83
2021/05/24 00:57:34;;;;;;;0.63;0.30;;;13.50;65.70;;;;;;2074757;28;20062;-83
2021/05/24 00:58:36;;;;;;;2.35;0.40;;;13.50;65.70;;;;;;2073738;28;20113;-84
2021/05/24 00:59:37;;;;;;;1.33;0.30;;;13.50;65.80;;;;;;2073899;28;20065;-84
2021/05/24 01:00:39;;;;;;;0.43;0.20;;;13.50;65.70;;;;;;2066357;28;20030;-83
2021/05/24 01:01:40;;;;;;;1.30;0.40;;;13.50;65.70;;;;;;2082006;28;19998;-84
2021/05/24 01:02:41;;;;;;;0.50;0.30;;;13.50;65.70;;;;;;2091266;28;20117;-84
2021/05/24 01:03:41;;;;;;;0.90;0.30;;;13.60;65.70;;;;;;2099205;28;20025;-84
2021/05/24 01:04:42;;;;;;;0.95;0.40;;;13.60;66.30;;;;;;2090313;28;20558;-84
2021/05/24 01:05:45;;;;;;;3.42;0.47;;;13.50;65.60;;;;;;2085103;28;20037;-83
2021/05/24 01:06:47;;;;;;;1.27;0.35;;;13.50;65.50;;;;;;2076260;28;20041;-84
2021/05/24 01:07:48;;;;;;;1.02;0.28;;;13.60;65.60;;;;;;2073199;28;20566;-84
2021/05/24 01:08:49;;;;;;;0.50;0.20;;;13.60;65.50;;;;;;2065131;28;20078;-84
2021/05/24 01:09:49;;;;;;;1.27;0.40;;;13.60;65.50;;;;;;2057033;28;20031;-83
2021/05/24 01:10:50;;;;;;;1.40;0.50;;;13.60;65.50;;;;;;2064713;28;20023;-84
2021/05/24 01:11:51;;;;;;;0.80;0.32;;;13.60;65.50;;;;;;2064980;28;20034;-84
2021/05/24 01:12:52;;;;;;;0.82;0.28;;;13.60;65.40;;;;;;2056895;28;20062;-84
2021/05/24 01:13:53;;;;;;;2.42;0.50;;;13.70;65.50;;;;;;2056513;28;20098;-84
2021/05/24 01:14:54;;;;;;;1.48;0.40;;;13.60;65.40;;;;;;2073037;28;20033;-83
2021/05/24 01:15:55;;;;;;;0.80;0.30;;;13.70;65.40;;;;;;2064832;28;20035;-84
2021/05/24 01:16:56;;;;;;;1.77;0.40;;;13.70;65.40;;;;;;2057259;28;20393;-84
2021/05/24 01:17:57;;;;;;;0.90;0.38;;;13.70;65.50;;;;;;2073310;28;20030;-84
2021/05/24 01:18:58;;;;;;;1.55;0.30;;;13.70;65.40;;;;;;2073558;28;20029;-84
2021/05/24 01:19:58;;;;;;;1.33;0.30;;;13.70;65.40;;;;;;2066406;28;20041;-84
2021/05/24 01:20:59;;;;;;;0.80;0.50;;;13.70;65.40;;;;;;2077936;28;20094;-83
2021/05/24 01:22:00;;;;;;;2.17;0.30;;;13.70;65.50;;;;;;2072622;28;20037;-84
2021/05/24 01:24:05;;;;;;;1.20;0.28;;;13.70;65.50;;;;;;2068588;28;20011;-83
2021/05/24 01:25:07;;;;;;;0.75;0.20;;;13.70;65.60;;;;;;2084161;28;20018;-83
2021/05/24 01:26:08;;;;;;;2.38;0.30;;;13.70;65.60;;;;;;2075525;28;20086;-84
2021/05/24 01:27:09;;;;;;;1.98;0.40;;;13.70;65.60;;;;;;2074278;28;20030;-84
2021/05/24 01:28:12;;;;;;;1.38;0.30;;;13.70;65.60;;;;;;2073115;28;20030;-84
2021/05/24 01:29:15;;;;;;;0.30;0.20;;;13.70;65.70;;;;;;2073233;28;20030;-83
2021/05/24 01:30:17;;;;;;;1.00;0.30;;;13.70;65.70;;;;;;2081138;28;20541;-84
2021/05/24 01:31:17;;;;;;;1.60;0.30;;;13.70;65.70;;;;;;2073565;28;20026;-84
2021/05/24 01:32:18;;;;;;;2.30;0.40;;;13.70;65.70;;;;;;2066154;28;20412;-84
2021/05/24 01:33:19;;;;;;;1.35;0.40;;;13.70;65.60;;;;;;2058447;28;20129;-84
2021/05/24 01:34:19;;;;;;;1.17;0.20;;;13.70;65.70;;;;;;2066367;28;20037;-84
2021/05/24 01:35:20;;;;;;;0.52;0.30;;;13.70;65.70;;;;;;2074526;28;20025;-84
2021/05/24 01:36:21;;;;;;;1.50;0.40;;;13.70;65.70;;;;;;2066280;28;20492;-83
2021/05/24 01:37:21;;;;;;;1.42;0.20;;;13.70;65.70;;;;;;2066851;28;20069;-83
2021/05/24 01:38:22;;;;;;;1.00;0.35;;;13.70;65.70;;;;;;2066374;28;20129;-84
2021/05/24 01:39:23;;;;;;;1.00;0.30;;;13.70;65.70;;;;;;2068818;28;20082;-83
2021/05/24 01:40:25;;;;;;;0.77;0.30;;;13.70;65.80;;;;;;2074064;28;20038;-83
2021/05/24 01:41:25;;;;;;;1.17;0.50;;;13.70;66.50;;;;;;2066235;28;20413;-84
2021/05/24 01:42:26;;;;;;;1.33;0.30;;;13.70;65.80;;;;;;2066398;28;20062;-84
2021/05/24 01:43:31;;;;;;;1.60;0.40;;;13.70;65.90;;;;;;2066308;28;20022;-84
2021/05/24 01:44:33;;;;;;;1.70;0.45;;;13.70;65.90;;;;;;2082563;28;20434;-84
2021/05/24 01:45:34;;;;;;;0.77;0.30;;;13.70;65.90;;;;;;2082475;28;20018;-84
2021/05/24 01:46:34;;;;;;;1.10;0.30;;;13.70;65.90;;;;;;2065635;28;20046;-84
2021/05/24 01:47:35;;;;;;;0.70;0.30;;;13.70;66.00;;;;;;2074442;28;20507;-84
2021/05/24 01:48:36;;;;;;;1.60;0.30;;;13.70;66.00;;;;;;2074508;28;20034;-84
2021/05/24 01:49:46;;;;;;;0.32;0.25;;;13.70;66.00;;;;;;2074496;28;20064;-84
2021/05/24 01:50:47;;;;;;;1.65;0.40;;;13.60;66.00;;;;;;2081333;28;20022;-84
2021/05/24 01:51:48;;;;;;;0.60;0.20;;;13.70;66.10;;;;;;2073914;28;20476;-83
2021/05/24 01:52:49;;;;;;;0.88;0.30;;;13.60;66.10;;;;;;2074535;28;20109;-84
2021/05/24 01:53:50;;;;;;;0.95;0.30;;;13.70;66.30;;;;;;2082465;28;20116;-84
2021/05/24 01:54:51;;;;;;;1.35;0.40;;;13.60;66.30;;;;;;2066328;28;20041;-84
2021/05/24 01:55:51;;;;;;;1.02;0.20;;;13.60;66.40;;;;;;2058211;28;20026;-84
2021/05/24 01:56:52;;;;;;;0.73;0.20;;;13.60;66.40;;;;;;2055431;28;20039;-84
2021/05/24 01:57:54;;;;;;;0.60;0.20;;;13.60;66.50;;;;;;2066224;28;20049;-83
2021/05/24 01:58:54;;;;;;;0.68;0.20;;;13.60;66.60;;;;;;2082590;28;20510;-84
2021/05/24 01:59:56;;;;;;;0.80;0.32;;;13.60;66.60;;;;;;2081700;28;20018;-84
2021/05/24 02:01:10;;;;;;;1.00;0.25;;;13.60;66.60;;;;;;2082593;28;20029;-84
2021/05/24 02:02:11;;;;;;;1.27;0.30;;;13.60;66.70;;;;;;2088958;28;20483;-84
2021/05/24 02:03:12;;;;;;;1.33;0.30;;;13.60;66.70;;;;;;2081599;28;20069;-84
2021/05/24 02:04:17;;;;;;;1.27;0.35;;;13.60;66.80;;;;;;2074336;28;20385;-84
2021/05/24 02:05:19;;;;;;;1.33;0.30;;;13.60;66.80;;;;;;2082405;28;20064;-84
2021/05/24 02:06:20;;;;;;;1.42;0.30;;;13.60;66.80;;;;;;2066318;28;20026;-84
2021/05/24 02:07:20;;;;;;;2.63;0.60;;;13.60;66.90;;;;;;2050080;28;20550;-84
2021/05/24 02:08:21;;;;;;;0.40;0.30;;;13.60;66.90;;;;;;2050132;28;20039;-84
2021/05/24 02:09:22;;;;;;;0.43;0.30;;;13.50;66.90;;;;;;2074302;28;20065;-84
2021/05/24 02:10:28;;;;;;;1.70;0.40;;;13.60;67.00;;;;;;2073792;28;20132;-83
2021/05/24 02:11:29;;;;;;;0.93;0.22;;;13.60;67.00;;;;;;2075123;28;20045;-84
2021/05/24 02:12:30;;;;;;;1.45;0.30;;;13.50;67.00;;;;;;2066066;28;20030;-84
2021/05/24 02:13:31;;;;;;;0.80;0.28;;;13.60;67.10;;;;;;2065997;28;20465;-84
2021/05/24 02:14:31;;;;;;;0.60;0.20;;;13.60;67.10;;;;;;2074117;28;20064;-84
2021/05/24 02:15:37;;;;;;;0.88;0.40;;;13.50;67.00;;;;;;2073851;28;20057;-83
2021/05/24 02:16:49;;;;;;;0.57;0.22;;;13.50;67.10;;;;;;2082117;28;20087;-84
2021/05/24 02:17:50;;;;;;;1.05;0.28;;;13.50;67.10;;;;;;2083943;28;20376;-84
2021/05/24 02:18:51;;;;;;;0.40;0.20;;;13.50;67.10;;;;;;2065407;28;20038;-83
2021/05/24 02:19:53;;;;;;;0.90;0.30;;;13.50;67.10;;;;;;2049863;28;20397;-84
2021/05/24 02:20:53;;;;;;;0.73;0.50;;;13.50;67.20;;;;;;2050281;28;20406;-83
2021/05/24 02:21:54;;;;;;;1.35;0.20;;;13.50;67.20;;;;;;2057837;28;20038;-84
2021/05/24 02:22:56;;;;;;;1.20;0.38;;;13.50;67.20;;;;;;2065959;28;20019;-83
2021/05/24 02:23:57;;;;;;;1.95;0.43;;;13.50;67.30;;;;;;2073819;28;20037;-84
2021/05/24 02:24:58;;;;;;;1.75;0.75;;;13.50;67.30;;;;;;2065619;28;20186;-84
2021/05/24 02:25:59;;;;;;;1.48;0.40;;;13.50;67.30;;;;;;2065995;28;20025;-84
2021/05/24 02:27:00;;;;;;;1.80;0.38;;;13.50;67.30;;;;;;2057799;28;20535;-83
2021/05/24 02:28:00;;;;;;;0.60;0.30;;;13.50;67.30;;;;;;2060681;28;20027;-83
2021/05/24 02:29:02;;;;;;;1.63;0.30;;;13.50;67.30;;;;;;2074072;28;20038;-84
2021/05/24 02:30:06;;;;;;;0.55;0.28;;;13.50;67.40;;;;;;2074406;28;20023;-84
2021/05/24 02:31:07;;;;;;;0.98;0.30;;;13.50;67.40;;;;;;2074870;28;20121;-84
2021/05/24 02:32:08;;;;;;;1.60;0.30;;;13.50;67.50;;;;;;2065729;28;20516;-84
2021/05/24 02:33:09;;;;;;;0.50;0.20;;;13.50;67.50;;;;;;2058227;28;20026;-84
2021/05/24 02:34:10;;;;;;;0.80;0.30;;;13.50;67.60;;;;;;2069123;28;20033;-84
2021/05/24 02:35:13;;;;;;;0.90;0.40;;;13.40;67.60;;;;;;2065808;28;20034;-84
2021/05/24 02:36:15;;;;;;;1.23;0.30;;;13.40;67.60;;;;;;2074105;28;20042;-84
2021/05/24 02:37:17;;;;;;;0.52;0.30;;;13.40;67.60;;;;;;2073740;28;20041;-84
2021/05/24 02:38:17;;;;;;;1.42;0.30;;;13.40;67.70;;;;;;2066056;28;20380;-84
2021/05/24 02:39:19;;;;;;;1.17;0.30;;;13.40;67.80;;;;;;2065596;28;20023;-84
2021/05/24 02:40:21;;;;;;;1.02;0.20;;;13.40;67.80;;;;;;2065758;28;20037;-84
2021/05/24 02:41:22;;;;;;;0.70;0.30;;;13.40;67.80;;;;;;2074585;28;20025;-84
2021/05/24 02:42:25;;;;;;;1.17;0.28;;;13.30;67.80;;;;;;2081777;28;20037;-84
2021/05/24 02:43:26;;;;;;;0.90;0.30;;;13.30;67.80;;;;;;2073877;28;20022;-84
2021/05/24 02:44:27;;;;;;;1.05;0.40;;;13.30;67.90;;;;;;2065801;28;20058;-84
2021/05/24 02:45:28;;;;;;;1.20;0.38;;;13.30;67.90;;;;;;2065635;28;20034;-83
2021/05/24 02:46:28;;;;;;;0.80;0.30;;;13.30;68.00;;;;;;2065667;28;20038;-83
2021/05/24 02:47:29;;;;;;;1.38;0.38;;;13.30;68.10;;;;;;2073893;28;20033;-84
2021/05/24 02:48:30;;;;;;;0.82;0.40;;;13.20;68.10;;;;;;2065738;28;20087;-84
2021/05/24 02:49:30;;;;;;;0.82;0.38;;;13.30;68.10;;;;;;2049768;28;20027;-84
2021/05/24 02:50:31;;;;;;;0.40;0.30;;;13.30;68.20;;;;;;2065639;28;20092;-84
2021/05/24 02:51:32;;;;;;;0.50;0.20;;;13.30;68.20;;;;;;2073178;28;20109;-84
2021/05/24 02:52:33;;;;;;;0.80;0.25;;;13.30;68.30;;;;;;2073299;28;20467;-84
2021/05/24 02:53:34;;;;;;;3.28;0.40;;;13.20;68.20;;;;;;2073064;28;20069;-84
2021/05/24 02:54:35;;;;;;;0.80;0.30;;;13.20;68.30;;;;;;2065168;28;20026;-84
2021/05/24 02:55:36;;;;;;;1.33;0.20;;;13.20;68.30;;;;;;2065126;28;20031;-84
2021/05/24 02:56:37;;;;;;;0.95;0.40;;;13.20;68.30;;;;;;2065262;28;20019;-84
2021/05/24 02:57:38;;;;;;;0.88;0.30;;;13.20;68.90;;;;;;2065265;28;20030;-84
2021/05/24 02:58:38;;;;;;;1.08;0.30;;;13.20;68.40;;;;;;2060714;28;20408;-84
2021/05/24 02:59:39;;;;;;;0.55;0.25;;;13.20;69.00;;;;;;2073224;28;20514;-84
2021/05/24 03:00:40;;;;;;;1.35;0.30;;;13.20;68.50;;;;;;2073382;28;20581;-84
2021/05/24 03:01:42;;;;;;;1.17;0.40;;;13.20;68.50;;;;;;2073344;28;20096;-84
2021/05/24 03:02:46;;;;;;;1.38;0.30;;;13.20;68.50;;;;;;2081606;28;20025;-84
2021/05/24 03:03:53;;;;;;;1.23;0.50;;;13.20;68.60;;;;;;2065218;28;20476;-83
2021/05/24 03:04:54;;;;;;;0.68;0.30;;;13.20;68.60;;;;;;2065726;28;20030;-84
2021/05/24 03:05:55;;;;;;;1.17;0.20;;;13.10;68.50;;;;;;2066002;28;20089;-84
2021/05/24 03:06:56;;;;;;;1.35;0.55;;;13.10;68.60;;;;;;2065098;28;20066;-84
2021/05/24 03:07:57;;;;;;;2.15;0.40;;;13.10;68.60;;;;;;2065209;28;20023;-84
2021/05/24 03:08:58;;;;;;;0.77;0.30;;;13.10;68.70;;;;;;2064927;28;20069;-84
2021/05/24 03:09:58;;;;;;;0.60;0.30;;;13.10;68.70;;;;;;2073230;28;20550;-84
2021/05/24 03:10:59;;;;;;;1.00;0.40;;;13.10;68.80;;;;;;2072943;28;20112;-84
2021/05/24 03:12:00;;;;;;;1.63;0.30;;;13.10;68.80;;;;;;2064547;28;20124;-83
2021/05/24 03:13:01;;;;;;;1.40;0.30;;;13.10;68.80;;;;;;2072870;28;20058;-84
2021/05/24 03:14:01;;;;;;;1.50;0.30;;;13.00;68.80;;;;;;2064443;28;21212;-84
2021/05/24 03:15:03;;;;;;;0.52;0.30;;;13.10;68.90;;;;;;2072063;28;20061;-83
2021/05/24 03:16:04;;;;;;;1.55;0.22;;;13.10;69.00;;;;;;2073166;28;20411;-84
2021/05/24 03:17:04;;;;;;;0.95;0.35;;;13.10;69.00;;;;;;2056749;28;20031;-83
2021/05/24 03:18:05;;;;;;;1.35;0.77;;;13.10;69.00;;;;;;2057099;28;20039;-84
2021/05/24 03:19:06;;;;;;;0.73;0.30;;;13.10;69.00;;;;;;2065291;28;20037;-84
2021/05/24 03:20:08;;;;;;;1.27;0.40;;;13.10;69.10;;;;;;2064963;28;20022;-83
2021/05/24 03:21:09;;;;;;;1.05;0.30;;;13.10;69.10;;;;;;2065699;28;20027;-84
2021/05/24 03:22:10;;;;;;;2.17;0.43;;;13.00;69.10;;;;;;2073906;28;20409;-84
2021/05/24 03:23:10;;;;;;;1.05;0.30;;;13.00;69.10;;;;;;2073181;28;20034;-84
2021/05/24 03:24:11;;;;;;;0.77;0.30;;;13.00;69.10;;;;;;2056958;28;20023;-84
2021/05/24 03:25:15;;;;;;;0.70;0.30;;;13.00;69.10;;;;;;2057042;28;20122;-84
2021/05/24 03:26:15;;;;;;;1.90;0.40;;;13.00;69.20;;;;;;2072967;28;20108;-83
2021/05/24 03:27:16;;;;;;;1.55;0.30;;;13.00;69.20;;;;;;2064990;28;20485;-84
2021/05/24 03:28:17;;;;;;;0.45;0.20;;;13.00;69.20;;;;;;2064994;28;20048;-83
2021/05/24 03:29:18;;;;;;;1.25;0.40;;;13.00;69.20;;;;;;2073316;28;20026;-84
2021/05/24 03:30:19;;;;;;;1.23;0.30;;;13.00;69.30;;;;;;2064996;28;20034;-84
2021/05/24 03:31:20;;;;;;;1.25;0.30;;;13.00;69.30;;;;;;2066567;28;20021;-83
2021/05/24 03:32:20;;;;;;;0.50;0.28;;;13.00;69.40;;;;;;2064865;28;20065;-83
2021/05/24 03:33:21;;;;;;;1.48;0.25;;;13.00;69.40;;;;;;2056768;28;20027;-84
2021/05/24 03:34:22;;;;;;;0.63;0.30;;;13.00;69.40;;;;;;2064876;28;20034;-84
2021/05/24 03:35:22;;;;;;;1.15;0.40;;;13.00;69.50;;;;;;2056993;28;20030;-84
2021/05/24 03:36:23;;;;;;;1.52;0.40;;;13.00;69.50;;;;;;2056752;28;20054;-84
2021/05/24 03:37:24;;;;;;;1.58;0.40;;;13.00;69.50;;;;;;2065228;28;20042;-84
2021/05/24 03:38:25;;;;;;;0.88;0.30;;;13.00;69.50;;;;;;2059341;28;20145;-84
2021/05/24 03:39:26;;;;;;;0.80;0.50;;;12.90;69.40;;;;;;2064986;28;20037;-83
2021/05/24 03:40:26;;;;;;;0.95;0.32;;;13.00;69.50;;;;;;2062541;28;20085;-84
2021/05/24 03:41:27;;;;;;;0.52;0.20;;;13.00;69.60;;;;;;2073024;28;20068;-84
2021/05/24 03:42:28;;;;;;;0.90;0.30;;;13.00;69.60;;;;;;2065006;28;20037;-84
2021/05/24 03:43:28;;;;;;;1.10;0.30;;;13.00;69.60;;;;;;2072672;28;20444;-84
2021/05/24 03:44:29;;;;;;;0.88;0.20;;;13.00;69.60;;;;;;2064664;28;20030;-84
2021/05/24 03:45:33;;;;;;;0.57;0.22;;;13.00;69.60;;;;;;2056852;28;20051;-84
2021/05/24 03:46:34;;;;;;;0.75;0.30;;;13.00;69.60;;;;;;2057574;28;20023;-84
2021/05/24 03:47:35;;;;;;;0.52;0.22;;;13.00;69.60;;;;;;2065684;28;20433;-84
2021/05/24 03:48:37;;;;;;;0.47;0.22;;;13.00;69.70;;;;;;2064716;28;20035;-84
2021/05/24 03:49:38;;;;;;;1.58;0.40;;;13.00;69.70;;;;;;2057351;28;20397;-84
2021/05/24 03:50:39;;;;;;;0.98;0.30;;;13.00;69.70;;;;;;2065411;28;20034;-84
2021/05/24 03:51:42;;;;;;;0.80;0.40;;;13.00;69.70;;;;;;1951638;28;3283635;-84
2021/05/24 03:52:43;;;;;;;1.52;0.30;;;13.00;69.70;;;;;;2065912;28;20023;-84
2021/05/24 03:53:44;;;;;;;1.88;0.40;;;13.00;69.80;;;;;;2073408;28;20066;-84
2021/05/24 03:54:45;;;;;;;2.55;0.50;;;13.00;69.80;;;;;;2069238;28;20528;-84
2021/05/24 03:55:45;;;;;;;1.08;0.32;;;13.00;69.80;;;;;;2069960;28;20542;-84
2021/05/24 03:56:48;;;;;;;0.47;0.30;;;13.00;69.80;;;;;;2060115;28;20043;-84
2021/05/24 03:57:53;;;;;;;1.55;0.40;;;13.00;69.80;;;;;;2065317;28;20534;-84
2021/05/24 03:58:53;;;;;;;2.10;0.40;;;13.00;69.90;;;;;;2072910;28;20026;-84
2021/05/24 03:59:54;;;;;;;1.17;0.30;;;12.90;69.90;;;;;;2067800;28;20592;-84
2021/05/24 04:00:55;;;;;;;1.42;0.30;;;13.00;69.90;;;;;;2073271;28;20030;-83
2021/05/24 04:01:55;;;;;;;0.90;0.30;;;12.90;69.80;;;;;;2081354;28;20055;-84
2021/05/24 04:02:57;;;;;;;1.65;0.40;;;12.90;69.90;;;;;;2081413;28;20034;-83
2021/05/24 04:03:58;;;;;;;1.40;0.32;;;13.00;70.00;;;;;;2073153;28;20439;-84
2021/05/24 04:05:02;;;;;;;1.23;0.38;;;13.00;70.00;;;;;;2057493;28;20039;-84
2021/05/24 04:06:05;;;;;;;2.03;0.50;;;12.90;69.90;;;;;;2058141;28;20023;-84
2021/05/24 04:07:08;;;;;;;0.65;0.30;;;13.00;70.00;;;;;;2058271;28;20146;-84
2021/05/24 04:08:09;;;;;;;1.52;0.30;;;12.90;69.90;;;;;;2074293;28;20117;-84
2021/05/24 04:09:10;;;;;;;0.45;0.20;;;12.90;70.00;;;;;;2081238;28;20454;-84
2021/05/24 04:10:13;;;;;;;1.25;0.38;;;12.90;70.00;;;;;;2073297;28;20120;-83
2021/05/24 04:11:14;;;;;;;1.52;0.40;;;12.90;70.00;;;;;;2081269;28;20439;-84
2021/05/24 04:12:15;;;;;;;1.30;0.40;;;12.90;70.10;;;;;;2088698;28;20021;-84
2021/05/24 04:13:16;;;;;;;0.85;0.30;;;12.90;70.10;;;;;;2080859;28;20412;-83
2021/05/24 04:14:17;;;;;;;0.80;0.30;;;12.90;70.10;;;;;;2066638;28;20065;-84
2021/05/24 04:15:18;;;;;;;0.38;0.22;;;12.90;70.20;;;;;;2065065;28;20584;-84
2021/05/24 04:16:19;;;;;;;0.70;0.22;;;12.90;70.20;;;;;;2073287;28;20076;-84
2021/05/24 04:17:22;;;;;;;0.55;0.28;;;12.90;70.90;;;;;;2081406;28;20032;-84
2021/05/24 04:18:29;;;;;;;0.90;0.30;;;12.90;70.30;;;;;;2073224;28;20026;-83
2021/05/24 04:19:30;;;;;;;0.82;0.30;;;12.90;70.40;;;;;;2067135;28;20039;-84
2021/05/24 04:20:31;;;;;;;0.60;0.30;;;12.80;70.40;;;;;;2072996;28;20386;-83
2021/05/24 04:21:32;;;;;;;0.60;0.30;;;12.90;70.50;;;;;;2073056;28;20045;-84
2021/05/24 04:22:34;;;;;;;1.25;0.40;;;12.80;70.40;;;;;;2081241;28;20060;-83
2021/05/24 04:23:35;;;;;;;1.30;0.30;;;12.90;70.50;;;;;;2073306;28;20053;-84
2021/05/24 04:24:35;;;;;;;1.17;0.30;;;12.90;70.60;;;;;;2064828;28;20552;-84
2021/05/24 04:25:37;;;;;;;0.47;0.30;;;12.90;70.60;;;;;;2064980;28;20031;-84
2021/05/24 04:26:38;;;;;;;0.70;0.25;;;12.80;70.60;;;;;;2064703;28;20025;-84
2021/05/24 04:27:39;;;;;;;0.90;0.30;;;12.80;70.60;;;;;;2073124;28;20026;-84
2021/05/24 04:28:40;;;;;;;1.75;0.50;;;12.80;70.60;;;;;;2072634;28;20022;-84
2021/05/24 04:29:40;;;;;;;0.90;0.30;;;12.80;70.70;;;;;;2065543;28;20034;-84
2021/05/24 04:30:42;;;;;;;1.58;0.30;;;12.80;70.70;;;;;;2069237;28;20041;-84
2021/05/24 04:31:43;;;;;;;0.88;0.30;;;12.80;71.40;;;;;;2064479;28;20026;-84
2021/05/24 04:32:44;;;;;;;1.27;0.40;;;12.80;70.80;;;;;;2057017;28;20145;-84
2021/05/24 04:33:45;;;;;;;0.50;0.22;;;12.80;70.90;;;;;;2064913;28;20125;-84
2021/05/24 04:34:45;;;;;;;1.42;0.40;;;12.80;70.90;;;;;;2064758;28;20045;-84
2021/05/24 04:35:46;;;;;;;1.80;0.30;;;12.80;70.90;;;;;;2072810;28;20075;-84
2021/05/24 04:36:47;;;;;;;0.50;0.22;;;12.80;70.90;;;;;;2064916;28;20098;-84
2021/05/24 04:37:47;;;;;;;1.58;0.47;;;12.70;70.90;;;;;;2048873;28;20561;-84
2021/05/24 04:38:48;;;;;;;1.23;0.30;;;12.70;70.90;;;;;;2048782;29;20493;-84
2021/05/24 04:39:48;;;;;;;1.67;0.30;;;12.70;71.00;;;;;;2056886;28;20034;-84
2021/05/24 04:40:49;;;;;;;2.15;0.40;;;12.70;71.00;;;;;;2080791;28;20025;-84
2021/05/24 04:41:50;;;;;;;1.55;0.40;;;12.70;71.10;;;;;;2072917;28;20030;-85
2021/05/24 04:42:51;;;;;;;0.52;0.30;;;12.70;71.10;;;;;;2057046;28;20031;-84
2021/05/24 04:43:56;;;;;;;1.08;0.22;;;12.70;71.10;;;;;;2064604;28;20480;-84
2021/05/24 04:44:56;;;;;;;0.98;0.30;;;12.70;71.10;;;;;;2057813;28;20042;-84
2021/05/24 04:45:57;;;;;;;0.57;0.30;;;12.70;71.10;;;;;;2064858;28;20113;-84
2021/05/24 04:46:58;;;;;;;1.15;0.40;;;12.70;71.10;;;;;;2066183;28;20088;-84
2021/05/24 04:47:58;;;;;;;1.38;0.35;;;12.70;71.20;;;;;;2056916;28;20031;-84
2021/05/24 04:48:59;;;;;;;1.77;0.45;;;12.70;71.20;;;;;;2072227;28;20034;-84
2021/05/24 04:50:00;;;;;;;0.80;0.40;;;12.70;71.20;;;;;;2072916;28;20068;-84
2021/05/24 04:51:02;;;;;;;0.70;0.35;;;12.70;71.20;;;;;;2064955;28;20507;-84
2021/05/24 04:52:04;;;;;;;1.30;0.40;;;12.70;71.30;;;;;;2061070;28;20416;-84
2021/05/24 04:53:04;;;;;;;1.13;0.28;;;12.70;71.30;;;;;;2073379;28;20026;-84
2021/05/24 04:54:06;;;;;;;0.82;0.20;;;12.70;71.30;;;;;;2081122;28;20112;-84
2021/05/24 04:55:08;;;;;;;1.33;0.28;;;12.70;71.30;;;;;;2081022;28;20029;-84
2021/05/24 04:56:08;;;;;;;1.42;0.30;;;12.70;71.40;;;;;;2072833;28;20025;-83
2021/05/24 04:57:09;;;;;;;0.38;0.25;;;12.70;71.40;;;;;;2056837;28;20031;-85
2021/05/24 04:58:11;;;;;;;1.60;0.30;;;12.80;71.40;;;;;;2065041;28;20023;-84
2021/05/24 04:59:11;;;;;;;1.08;0.40;;;12.80;71.40;;;;;;2073062;28;20435;-84
2021/05/24 05:00:14;;;;;;;1.65;0.30;;;12.70;71.40;;;;;;2064864;28;20209;-84
2021/05/24 05:01:14;;;;;;;0.60;0.28;;;12.80;71.50;;;;;;2073340;28;20097;-84
2021/05/24 05:02:15;;;;;;;1.35;0.30;;;12.70;71.50;;;;;;2073121;28;20113;-84
2021/05/24 05:03:16;;;;;;;0.30;0.30;;;12.80;71.50;;;;;;2069516;28;20030;-83
2021/05/24 05:04:17;;;;;;;0.93;0.30;;;12.80;71.50;;;;;;2073437;28;20361;-84
2021/05/24 05:05:18;;;;;;;1.73;0.40;;;12.80;71.50;;;;;;2081376;28;20026;-84
2021/05/24 05:06:19;;;;;;;0.80;0.30;;;12.70;71.50;;;;;;2072700;28;20065;-83
2021/05/24 05:07:19;;;;;;;0.68;0.20;;;12.80;71.50;;;;;;2073678;28;20120;-84
2021/05/24 05:08:20;;;;;;;1.63;0.30;;;12.80;71.60;;;;;;2073971;28;20377;-85
2021/05/24 05:09:21;;;;;;;1.95;0.40;;;12.80;71.60;;;;;;2067185;28;20464;-84
2021/05/24 05:10:21;;;;;;;1.13;0.30;;;12.80;71.60;;;;;;2067254;28;20027;-83
2021/05/24 05:11:23;;;;;;;2.10;0.43;;;12.80;71.60;;;;;;2075636;28;20045;-83
2021/05/24 05:12:27;;;;;;;1.02;0.30;;;12.80;71.60;;;;;;2075964;28;20034;-82
2021/05/24 05:13:28;;;;;;;0.63;0.30;;;12.80;71.60;;;;;;2076661;28;20006;-81
2021/05/24 05:14:28;;;;;;;0.70;0.30;;;12.80;71.70;;;;;;2084441;28;20032;-83
2021/05/24 05:15:29;;;;;;;1.08;0.30;;;12.80;71.70;;;;;;2075736;28;20014;-82
2021/05/24 05:16:31;;;;;;;0.95;0.40;;;12.80;71.70;;;;;;2079472;28;20029;-84
2021/05/24 05:17:31;;;;;;;2.25;0.30;;;12.80;71.70;;;;;;2087327;28;20037;-84
2021/05/24 05:18:34;;;;;;;0.93;0.40;;;12.80;71.70;;;;;;2066129;28;20421;-84
2021/05/24 05:19:35;;;;;;;0.80;0.30;;;12.80;71.70;;;;;;2066484;28;20039;-84
2021/05/24 05:20:35;;;;;;;0.40;0.28;;;12.80;71.70;;;;;;2073936;28;20429;-84